Bartlett, New York
Current Conditions -  °F | °C
As of 3:53 PM on Thursday 18 Dec 2014 (Local Time) from KRME Reporting Station
Light Snow Light Snow  
Wind Chill: 20°   Ceiling: 1300
Heat Index: 30°   Visibility: 6mi
Dew Point: 28°   Wind: 13mph
Humidity: 92%   Direction: 280°W
Pressure: 30"   Gusts: NA
Location:  43.2466°N, 75.4624°W
Report Text: KRME 182053Z 28011KT 6SM -SN BR OVC013 M01/M02 A3000 RMK AO2 SNE1956B50 SLP162 P0000 60000 T10111022 53009
Loading
Personal Weather Stations






























Interactive Weather Map New forecast layout! Learn more

10-Day Weather Forecast

Advertisements
Track Severe Weather on mobile